Terminal Aerodrome Forecast
Issued by NWS

Home | Current Version | Previous Version | Text Only | Print | Product List | Glossary On
Versions: 1 2 3 4 5 6 7 8 9 10 11 12 13 14
544
FTUS41 KPBZ 242336
TAFMGW
TAF
KMGW 242336Z 2500/2524 08008KT P6SM VCSH OVC070
     FM250400 09010KT P6SM OVC060 WS020/12040KT
     FM251000 09009KT P6SM OVC045=

USA.gov is the U.S. government's official web portal to all federal, state and local government web resources and services.